createdAt,value
2022-08-19T00:01:29.230Z,75.86
2022-08-19T00:04:37.597Z,75.44
2022-08-19T00:07:43.805Z,76.20
2022-08-19T00:10:47.003Z,76.69
2022-08-19T00:13:50.922Z,76.32
2022-08-19T00:16:55.657Z,75.68
2022-08-19T00:19:58.419Z,75.77
2022-08-19T00:23:05.313Z,75.37
2022-08-19T00:26:09.169Z,74.82
2022-08-19T00:29:14.010Z,75.19
2022-08-19T00:32:16.792Z,74.95
2022-08-19T00:35:21.008Z,75.18
2022-08-19T00:38:34.980Z,75.32
2022-08-19T00:41:41.079Z,74.95
2022-08-19T00:44:44.048Z,74.63
2022-08-19T00:47:47.181Z,75.25
2022-08-19T00:50:52.509Z,75.40
2022-08-19T00:53:59.173Z,74.72
2022-08-19T00:57:03.944Z,76.27
2022-08-19T01:00:10.626Z,76.34
2022-08-19T01:03:15.905Z,77.25
2022-08-19T01:06:22.309Z,77.19
2022-08-19T01:09:26.323Z,77.38
2022-08-19T01:12:29.569Z,77.89
2022-08-19T01:15:35.180Z,77.63
2022-08-19T01:18:42.113Z,77.93
2022-08-19T01:21:53.126Z,78.04
2022-08-19T01:24:57.092Z,78.00
2022-08-19T01:28:09.227Z,78.18
2022-08-19T01:31:26.384Z,77.86
2022-08-19T01:34:30.292Z,78.14
2022-08-19T01:37:44.652Z,77.71
2022-08-19T01:40:49.042Z,78.04
2022-08-19T01:44:13.347Z,78.49
2022-08-19T01:47:15.124Z,78.37
2022-08-19T01:50:18.919Z,78.88
2022-08-19T01:53:23.828Z,77.86
2022-08-19T01:56:34.651Z,78.89
2022-08-19T01:59:37.566Z,80.79
2022-08-19T02:02:40.745Z,80.89
2022-08-19T02:05:47.029Z,80.72
2022-08-19T02:08:50.277Z,80.83
2022-08-19T02:11:55.753Z,80.03
2022-08-19T02:14:58.534Z,79.88
2022-08-19T02:18:01.145Z,79.83
2022-08-19T02:21:04.005Z,80.75
2022-08-19T02:24:07.188Z,80.73
2022-08-19T02:27:11.319Z,80.81
2022-08-19T02:30:17.593Z,81.02
2022-08-19T02:33:20.487Z,80.51
2022-08-19T02:36:24.147Z,79.61
2022-08-19T02:39:27.323Z,78.68
2022-08-19T02:42:31.699Z,79.65
2022-08-19T02:45:35.184Z,80.47
2022-08-19T02:48:37.936Z,79.81
2022-08-19T02:51:42.931Z,80.53
2022-08-19T02:54:46.396Z,80.93
2022-08-19T02:57:50.450Z,82.10
2022-08-19T03:00:56.269Z,81.69
2022-08-19T03:04:01.339Z,80.36
2022-08-19T03:07:10.770Z,80.79
2022-08-19T03:10:14.830Z,81.46
2022-08-19T03:13:20.056Z,81.17
2022-08-19T03:16:25.159Z,81.82
2022-08-19T03:19:28.620Z,81.62
2022-08-19T03:22:31.449Z,80.73
2022-08-19T03:25:38.994Z,82.13
2022-08-19T03:28:43.067Z,81.10
2022-08-19T03:31:53.632Z,81.97
2022-08-19T03:34:56.281Z,81.44
2022-08-19T03:38:00.459Z,81.44
2022-08-19T03:41:09.029Z,80.83
2022-08-19T03:44:18.509Z,81.74
2022-08-19T03:47:21.539Z,81.76
2022-08-19T03:50:25.313Z,81.43
2022-08-19T03:53:29.533Z,80.79
2022-08-19T03:56:33.474Z,80.06
2022-08-19T03:59:38.859Z,81.10
2022-08-19T04:02:41.851Z,81.87
2022-08-19T04:05:44.776Z,82.25
2022-08-19T04:08:48.245Z,80.92
2022-08-19T04:11:54.712Z,81.47
2022-08-19T04:14:59.441Z,80.78
2022-08-19T04:18:02.021Z,81.75
2022-08-19T04:21:07.574Z,80.82
2022-08-19T04:24:11.242Z,81.51
2022-08-19T04:27:14.457Z,81.88
2022-08-19T04:30:18.751Z,80.90
2022-08-19T04:33:26.868Z,80.94
2022-08-19T04:36:34.699Z,80.80
2022-08-19T04:39:55.001Z,81.08
2022-08-19T04:43:02.135Z,80.63
2022-08-19T04:46:08.915Z,81.48
2022-08-19T04:49:13.892Z,80.02
2022-08-19T04:52:18.094Z,81.80
2022-08-19T04:55:21.107Z,81.90
2022-08-19T04:58:24.192Z,80.73
2022-08-19T05:01:30.695Z,81.03
2022-08-19T05:04:34.548Z,81.92
2022-08-19T05:07:37.567Z,81.97
2022-08-19T05:10:41.680Z,81.42
2022-08-19T05:13:45.286Z,80.40
2022-08-19T05:16:49.681Z,81.32
2022-08-19T05:20:10.083Z,81.18
2022-08-19T05:23:20.602Z,79.76
2022-08-19T05:26:27.043Z,79.53
2022-08-19T05:29:33.387Z,80.17
2022-08-19T05:32:40.496Z,79.32
2022-08-19T05:35:43.393Z,79.23
2022-08-19T05:38:46.033Z,78.59
2022-08-19T05:41:50.380Z,78.76
2022-08-19T05:44:53.046Z,79.97
2022-08-19T05:47:57.177Z,78.82
2022-08-19T05:51:00.569Z,78.77
2022-08-19T05:54:04.286Z,77.49
2022-08-19T05:57:06.941Z,75.48
2022-08-19T06:00:12.336Z,74.59
2022-08-19T06:03:16.307Z,75.35
2022-08-19T06:06:20.159Z,74.83
2022-08-19T06:09:24.087Z,73.44
2022-08-19T06:12:34.991Z,74.20
2022-08-19T06:15:37.628Z,74.92
2022-08-19T06:18:41.648Z,74.87
2022-08-19T06:21:46.653Z,75.95
2022-08-19T06:24:53.663Z,75.58
2022-08-19T06:28:14.675Z,75.53
2022-08-19T06:31:21.267Z,75.49
2022-08-19T06:34:26.746Z,74.99
2022-08-19T06:37:29.427Z,74.36
2022-08-19T06:40:32.356Z,74.78
2022-08-19T06:43:35.000Z,74.13
2022-08-19T06:46:38.533Z,74.72
2022-08-19T06:49:44.259Z,73.76
2022-08-19T06:52:47.931Z,74.83
2022-08-19T06:56:01.424Z,75.64
2022-08-19T06:59:06.174Z,76.12
2022-08-19T07:02:10.138Z,77.27
2022-08-19T07:05:14.137Z,75.02
2022-08-19T07:08:16.863Z,76.06
2022-08-19T07:11:21.546Z,75.98
2022-08-19T07:14:29.252Z,75.91
2022-08-19T07:17:31.917Z,75.98
2022-08-19T07:20:42.135Z,73.96
2022-08-19T07:23:45.873Z,72.70
2022-08-19T07:26:51.596Z,74.07
2022-08-19T07:29:57.092Z,75.96
2022-08-19T07:33:00.515Z,76.01
2022-08-19T07:36:11.328Z,74.34
2022-08-19T07:39:17.437Z,75.81
2022-08-19T07:42:21.933Z,75.42
2022-08-19T07:45:24.778Z,75.71
2022-08-19T07:48:29.579Z,76.43
2022-08-19T07:51:36.968Z,75.72
2022-08-19T07:54:41.957Z,75.52
2022-08-19T08:00:53.070Z,76.31
2022-08-19T08:04:14.964Z,76.61
2022-08-19T08:07:37.140Z,77.32
2022-08-19T08:10:39.819Z,77.30
2022-08-19T08:13:44.754Z,77.14
2022-08-19T08:16:47.735Z,76.67
2022-08-19T08:19:51.915Z,76.21
2022-08-19T08:23:13.369Z,76.14
2022-08-19T08:26:17.163Z,76.46
2022-08-19T08:29:22.222Z,76.48
2022-08-19T08:32:28.813Z,75.18
2022-08-19T08:35:31.763Z,75.46
2022-08-19T08:38:39.695Z,76.07
2022-08-19T08:41:50.533Z,77.05
2022-08-19T08:45:00.066Z,77.21
2022-08-19T08:48:23.848Z,77.05
2022-08-19T08:51:34.923Z,76.93
2022-08-19T08:54:54.764Z,76.72
2022-08-19T08:58:02.919Z,77.13
2022-08-19T09:01:05.738Z,77.12
2022-08-19T09:04:09.492Z,78.04
2022-08-19T09:07:36.051Z,78.03
2022-08-19T09:10:45.943Z,77.88
2022-08-19T09:13:59.070Z,77.49
2022-08-19T09:17:04.294Z,77.22
2022-08-19T09:20:16.005Z,77.83
2022-08-19T09:23:19.253Z,77.57
2022-08-19T09:26:47.451Z,77.17
2022-08-19T09:29:55.921Z,77.70
2022-08-19T09:32:58.681Z,76.65
2022-08-19T09:36:08.353Z,75.90
2022-08-19T09:39:14.880Z,74.68
2022-08-19T09:42:30.259Z,74.41
2022-08-19T09:45:37.887Z,74.20
2022-08-19T09:48:41.942Z,74.65
2022-08-19T09:51:46.871Z,75.88
2022-08-19T09:54:54.538Z,73.79
2022-08-19T09:57:58.513Z,72.27
2022-08-19T10:01:03.080Z,72.86
2022-08-19T10:04:19.806Z,74.27
2022-08-19T10:07:23.407Z,74.76
2022-08-19T10:10:38.683Z,75.35
2022-08-19T10:13:47.944Z,74.91
2022-08-19T10:16:52.434Z,74.89
2022-08-19T10:19:56.128Z,74.28
2022-08-19T10:23:00.295Z,74.89
2022-08-19T10:26:07.073Z,75.69
2022-08-19T10:29:12.781Z,73.87
2022-08-19T10:32:15.603Z,74.03
2022-08-19T10:35:21.950Z,74.00
2022-08-19T10:38:31.384Z,74.64
2022-08-19T10:41:36.689Z,73.87
2022-08-19T10:44:40.834Z,72.96
2022-08-19T10:47:43.449Z,72.84
2022-08-19T10:51:03.519Z,72.92
2022-08-19T10:54:06.954Z,71.75
2022-08-19T10:57:14.736Z,72.35
2022-08-19T11:00:19.333Z,71.93
2022-08-19T11:03:22.575Z,71.16
2022-08-19T11:06:26.272Z,72.44
2022-08-19T11:09:33.880Z,71.13
2022-08-19T11:12:39.705Z,72.09
2022-08-19T11:15:44.053Z,72.56
2022-08-19T11:18:50.235Z,72.31
2022-08-19T11:21:57.525Z,71.42
2022-08-19T11:25:00.484Z,70.94
2022-08-19T11:28:03.276Z,70.72
2022-08-19T11:31:12.502Z,70.79
2022-08-19T11:34:19.025Z,70.20
2022-08-19T11:37:21.776Z,70.44
2022-08-19T11:40:24.567Z,70.35
2022-08-19T11:43:28.129Z,69.14
2022-08-19T11:46:33.325Z,70.77
2022-08-19T11:49:37.229Z,70.26
2022-08-19T11:52:40.111Z,70.51
2022-08-19T11:55:44.085Z,70.78
2022-08-19T11:58:47.235Z,70.10
2022-08-19T12:01:51.237Z,69.94
2022-08-19T12:04:54.570Z,69.57
2022-08-19T12:07:57.279Z,68.84
2022-08-19T12:11:02.044Z,68.92
2022-08-19T12:14:04.939Z,69.76
2022-08-19T12:17:10.201Z,70.20
2022-08-19T12:20:16.739Z,69.40
2022-08-19T12:23:19.667Z,69.40
2022-08-19T12:26:22.530Z,68.81
2022-08-19T12:29:29.539Z,69.28
2022-08-19T12:32:33.631Z,68.36
2022-08-19T12:35:36.545Z,68.96
2022-08-19T12:38:39.677Z,68.87
2022-08-19T12:41:50.576Z,68.31
2022-08-19T12:44:57.906Z,68.44
2022-08-19T12:48:01.908Z,67.83
2022-08-19T12:51:26.372Z,67.96
2022-08-19T12:54:29.300Z,68.52
2022-08-19T12:57:33.494Z,66.84
2022-08-19T13:00:36.245Z,66.51
2022-08-19T13:03:41.094Z,65.89
2022-08-19T13:06:44.366Z,65.44
2022-08-19T13:09:47.130Z,64.77
2022-08-19T13:12:52.351Z,63.97
2022-08-19T13:16:03.115Z,62.39
2022-08-19T13:19:08.404Z,61.17
2022-08-19T13:22:15.057Z,62.67
2022-08-19T13:25:20.620Z,61.67
2022-08-19T13:28:23.398Z,61.53
2022-08-19T13:31:51.863Z,61.84
2022-08-19T13:34:55.947Z,61.54
2022-08-19T13:37:58.747Z,59.53
2022-08-19T13:41:11.066Z,61.36
2022-08-19T13:44:15.044Z,62.46
2022-08-19T13:47:17.879Z,61.39
2022-08-19T13:50:25.998Z,61.82
2022-08-19T13:53:28.620Z,62.07
2022-08-19T13:56:31.366Z,60.81
2022-08-19T13:59:34.377Z,60.94
2022-08-19T14:02:38.665Z,62.00
2022-08-19T14:05:42.665Z,61.43
2022-08-19T14:08:46.347Z,62.19
2022-08-19T14:11:51.166Z,62.34
2022-08-19T14:14:53.926Z,62.39
2022-08-19T14:17:57.509Z,63.48
2022-08-19T14:21:01.499Z,63.52
2022-08-19T14:24:04.855Z,63.39
2022-08-19T14:27:07.597Z,64.09
2022-08-19T14:30:12.697Z,65.21
2022-08-19T14:33:15.718Z,65.15
2022-08-19T14:36:20.729Z,64.41
2022-08-19T14:39:23.326Z,64.43
2022-08-19T14:42:26.006Z,65.22
2022-08-19T14:45:29.660Z,64.37
2022-08-19T14:48:32.457Z,64.96
2022-08-19T14:51:36.490Z,65.75
2022-08-19T14:54:39.277Z,65.31
2022-08-19T14:57:43.168Z,65.65
2022-08-19T15:00:45.913Z,64.89
2022-08-19T15:03:49.790Z,65.03
2022-08-19T15:06:53.910Z,64.98
2022-08-19T15:09:56.550Z,66.10
2022-08-19T15:13:00.432Z,65.90
2022-08-19T15:16:03.660Z,65.69
2022-08-19T15:19:06.281Z,66.52
2022-08-19T15:22:10.585Z,67.31
2022-08-19T15:25:16.698Z,67.12
2022-08-19T15:28:19.613Z,67.73
2022-08-19T15:31:28.011Z,67.04
2022-08-19T15:34:32.460Z,68.67
2022-08-19T15:37:37.323Z,69.13
2022-08-19T15:40:41.759Z,69.65
2022-08-19T15:43:44.603Z,70.13
2022-08-19T15:46:48.679Z,70.76
2022-08-19T15:49:51.698Z,70.71
2022-08-19T15:53:00.850Z,71.34
2022-08-19T15:56:03.883Z,70.87
2022-08-19T15:59:23.810Z,70.85
2022-08-19T16:02:46.244Z,70.96
2022-08-19T16:06:06.615Z,71.34
2022-08-19T16:09:10.713Z,70.62
2022-08-19T16:12:14.148Z,71.01
2022-08-19T16:15:16.902Z,70.07
2022-08-19T16:18:19.835Z,71.73
2022-08-19T16:21:23.841Z,71.82
2022-08-19T16:24:29.474Z,71.60
2022-08-19T16:27:32.405Z,71.89
2022-08-19T16:30:35.188Z,72.15
2022-08-19T16:33:38.026Z,71.79
2022-08-19T16:36:44.328Z,72.50
2022-08-19T16:39:48.605Z,72.83
2022-08-19T16:42:52.427Z,72.62
2022-08-19T16:45:56.179Z,73.62
2022-08-19T16:48:59.421Z,74.12
2022-08-19T16:52:02.570Z,72.41
2022-08-19T16:55:08.598Z,73.53
2022-08-19T16:58:11.253Z,73.38
2022-08-19T17:01:14.654Z,73.55
2022-08-19T17:04:17.314Z,72.95
2022-08-19T17:07:20.728Z,73.14
2022-08-19T17:10:24.999Z,73.79
2022-08-19T17:13:29.717Z,73.59
2022-08-19T17:16:35.240Z,72.97
2022-08-19T17:19:38.037Z,73.54
2022-08-19T17:22:40.680Z,73.15
2022-08-19T17:25:44.899Z,73.20
2022-08-19T17:28:49.502Z,73.03
2022-08-19T17:31:52.799Z,72.05
2022-08-19T17:34:55.549Z,73.57
2022-08-19T17:37:58.621Z,73.31
2022-08-19T17:41:05.379Z,74.17
2022-08-19T17:44:09.111Z,73.66
2022-08-19T17:47:12.979Z,73.97
2022-08-19T17:50:16.375Z,73.18
2022-08-19T17:53:19.015Z,74.28
2022-08-19T17:56:23.958Z,73.94
2022-08-19T17:59:29.224Z,74.74
2022-08-19T18:02:33.256Z,75.10
2022-08-19T18:05:43.766Z,75.13
2022-08-19T18:08:49.161Z,75.81
2022-08-19T18:11:54.651Z,75.71
2022-08-19T18:14:59.350Z,75.22
2022-08-19T18:18:02.229Z,76.03
2022-08-19T18:21:05.736Z,75.84
2022-08-19T18:24:08.771Z,76.36
2022-08-19T18:27:12.934Z,76.40
2022-08-19T18:30:16.492Z,75.93
2022-08-19T18:33:19.689Z,75.84
2022-08-19T18:36:50.221Z,75.73
2022-08-19T18:39:59.551Z,76.33
2022-08-19T18:43:18.491Z,77.03
2022-08-19T18:46:38.657Z,76.18
2022-08-19T18:49:41.452Z,76.92
2022-08-19T18:52:44.379Z,77.60
2022-08-19T18:55:49.500Z,77.53
2022-08-19T18:58:53.696Z,77.05
2022-08-19T19:01:58.599Z,77.86
2022-08-19T19:05:06.886Z,77.31
2022-08-19T19:08:10.341Z,77.89
2022-08-19T19:11:13.453Z,77.43
2022-08-19T19:14:47.556Z,77.87
2022-08-19T19:17:46.961Z,78.50
2022-08-19T19:20:49.628Z,78.95
2022-08-19T19:23:53.375Z,78.08
2022-08-19T19:26:56.680Z,77.71
2022-08-19T19:30:00.859Z,77.55
2022-08-19T19:33:03.508Z,77.31
2022-08-19T19:36:06.927Z,77.45
2022-08-19T19:39:09.584Z,77.33
2022-08-19T19:42:20.007Z,77.15
2022-08-19T19:45:24.981Z,76.96
2022-08-19T19:48:28.564Z,76.95
2022-08-19T19:51:35.595Z,77.26
2022-08-19T19:54:41.812Z,76.60
2022-08-19T19:57:53.540Z,77.84
2022-08-19T20:00:59.205Z,77.99
2022-08-19T20:04:02.279Z,78.06
2022-08-19T20:07:05.153Z,78.03
2022-08-19T20:10:09.192Z,77.76
2022-08-19T20:13:15.554Z,77.73
2022-08-19T20:16:19.775Z,77.23
2022-08-19T20:19:26.169Z,78.35
2022-08-19T20:22:28.952Z,78.33
2022-08-19T20:25:39.437Z,78.49
2022-08-19T20:28:46.965Z,77.70
2022-08-19T20:32:02.664Z,78.08
2022-08-19T20:35:06.236Z,77.78
2022-08-19T20:38:09.535Z,77.40
2022-08-19T20:41:12.211Z,78.00
2022-08-19T20:44:15.197Z,77.88
2022-08-19T20:47:19.260Z,77.74
2022-08-19T20:50:22.984Z,78.13
2022-08-19T20:53:27.170Z,78.37
2022-08-19T20:56:30.009Z,78.19
2022-08-19T20:59:37.153Z,78.33
2022-08-19T21:02:42.114Z,78.93
2022-08-19T21:05:45.595Z,78.95
2022-08-19T21:08:49.103Z,78.62
2022-08-19T21:11:53.714Z,78.46
2022-08-19T21:14:56.487Z,78.51
2022-08-19T21:18:00.498Z,78.62
2022-08-19T21:21:03.619Z,78.18
2022-08-19T21:24:06.634Z,78.64
2022-08-19T21:27:09.537Z,78.99
2022-08-19T21:30:13.824Z,78.77
2022-08-19T21:33:18.016Z,78.78
2022-08-19T21:36:20.678Z,78.77
2022-08-19T21:39:23.613Z,78.20
2022-08-19T21:42:26.293Z,78.25
2022-08-19T21:45:29.798Z,79.01
2022-08-19T21:48:33.852Z,78.83
2022-08-19T21:51:36.665Z,79.33
2022-08-19T21:54:39.321Z,78.46
2022-08-19T21:57:42.765Z,78.81
2022-08-19T22:00:45.534Z,79.34
2022-08-19T22:03:49.908Z,79.09
2022-08-19T22:06:52.533Z,78.76
2022-08-19T22:09:55.332Z,78.10
2022-08-19T22:12:58.523Z,78.80
2022-08-19T22:16:01.517Z,78.87
2022-08-19T22:19:06.006Z,79.03
2022-08-19T22:22:08.842Z,78.92
2022-08-19T22:25:30.224Z,79.60
2022-08-19T22:28:35.068Z,79.88
2022-08-19T22:31:38.057Z,79.46
2022-08-19T22:34:43.913Z,79.14
2022-08-19T22:37:46.565Z,79.51
2022-08-19T22:40:50.984Z,80.09
2022-08-19T22:43:53.717Z,79.84
2022-08-19T22:46:56.645Z,79.89
2022-08-19T22:50:00.620Z,81.12
2022-08-19T22:53:03.631Z,80.67
2022-08-19T22:56:10.849Z,80.47
2022-08-19T22:59:17.363Z,80.65
2022-08-19T23:02:21.215Z,80.19
2022-08-19T23:05:28.983Z,80.17
2022-08-19T23:08:31.621Z,79.76
2022-08-19T23:11:38.177Z,80.23
2022-08-19T23:14:46.287Z,79.42
2022-08-19T23:17:49.416Z,80.47
2022-08-19T23:20:54.561Z,80.45
2022-08-19T23:23:57.570Z,80.85
2022-08-19T23:30:43.724Z,81.30
2022-08-19T23:33:51.456Z,80.94
2022-08-19T23:36:55.926Z,80.47
2022-08-19T23:39:58.768Z,81.01
2022-08-19T23:43:02.804Z,80.58
2022-08-19T23:46:13.213Z,80.60
2022-08-19T23:49:16.237Z,80.46
2022-08-19T23:52:20.617Z,79.95
2022-08-19T23:55:26.112Z,79.97
2022-08-19T23:58:30.290Z,80.27
